Timeline UpdatesTrip UpdatesNews PostsPvt PostsTravel TipsAdmin PostsConv PostsFollowed PostsChat RequestsBlog PostsPNR Posts

Disclaimer
Search
 
 
Thu Jul 31, 2014 19:00:27 ISTHomeTrainsΣChainsAtlasPNRForumGalleryNewsFAQTripsMembersLoginFeedback
No Recent News for this Train
Other Trains in the News **new
Latest...
Permanent AC-3T added from 01 Sep 12 http://indiarailinfo.com/blog/post/512304
Sat Aug 25, 2012 (09:15AM)
⇐ Return Journey: Train# 18234

18233/Narmada Express

May 09 2014 (9:25PM)
Change Departure Station:
Change Arrival Station:
Post a Train Travel TipPost a Train Travel Tip **new
Post a Comment/Question/Picture/VideoPost a Comment/Question/Picture/Video
Pantry/Catering
✕ NO Pantry Car
✓ Catering Avbl
Loco/Rake Reversals
UJN/Ujjain Junction (8); ET/Itarsi Junction (7); KTE/Katni Junction (6);
RSA - Rake Sharing
Rake/Coach Composition
ENG-SLR-GS-GS-GS-S1-S2-S3-S4-S5-S6-S7-S8-S9-S10-A1-HA1-B1-B2-GS-GS-SLR (INDB-UJN, ET-KTE); ENG-SLR-GS-GS-B2-B1-HA1-A1-S10-S9-S8-S7-S6-S5-S4-S3-S2-S1-GS-GS-GS-SLR (UJN-ET), (KTE-BSP)
Loco
ET WAM 4/6p (INDB-ET) ET WDP4/WDM-3A (ET-KTE) ET WAM/P4 (KTE-BSP)
News    PNR    Forum    Time-Table    Availability    Fare Chart    Map    Arr/Dep History    Trips    Gallery    ΣChains    X/O    Timeline    
Travel Time: 24h 10m    69 halts    Distance: 1010 km    Avg Speed: 41 km/hr
Type: Mail/Express
Zone: SECR/South East Central
Departs @ 17:15 (Avg 7m late)
Platform# 3
SMTWTFS
Indore Junction BG/INDB 
Arrives @ 17:25 +1 night (Avg 36m late)
Platform# 8
SMTWTFS
Bilaspur Junction/BSP 

69 halts. 125 intermediate Stations between Indore Junction BG and Bilaspur Junction

Show ALL intermediate Stations  Show Old Time-Table

#CodeStation NameX/OArrivesAvgDepartsAvgHaltPFDay#KmSpeedElevZoneAddress
1INDB»Indore Junction BG (3)»  -17:15+7310.056552mWRIndore, Madhya Pradesh
2MGGMangliyagaon (2)  17:31+1917:33+192m--115.075534mWRMangilya, Madhya Pradesh
3BLAXBarlai  17:41+2117:43+212m--125.046519mWRIndore, Madhya Pradesh
4DWXDewas Junction (2)X  18:01+1718:03+202m2138.837541mWRDewas, Madhya Pradesh
5NRGRNaranjipur (1)X  18:19+1618:21+212m1148.639537mWRDewas, Madhya Pradesh
6UDMUndasa Madhopur  18:32+1818:34+182m--155.948528mWRState Highway 18, Madhya Pradesh
7KDHAKarchhaX  18:41+1718:43+162m--161.449514mWRState Highway 18, Madhya Pradesh
8VRGVikram Nagar  18:58+1319:00+132m--173.733503mWRUjjain, Madhya Pradesh
9UJNUjjain Junction (8)19:10+1519:40+1330m1179.173492mWRUjjain 456001, Madhya Pradesh
10TANTarana Road  20:06+1720:07+181m--1110.652498mWRMaksi, Madhya Pradesh
11MKCMaksi Junction (3)X  20:18+2020:20+202m--1120.281513mWRMakshi, Madhya Pradesh
12BCHBerchha (2)  20:34+2620:36+292m--1139.166490mWRShajapur, Madhya Pradesh
13KSHKali Sindh (2)  20:47+2820:49+302m--1151.267443mWRShajapur, Madhya Pradesh
14AKDAkodia (2)  21:05+3421:07+362m--1169.171460mWRDist. Shajapur, Madhya Pradesh
15SJPShujalpur (3)X  21:18+3821:20+392m21182.269453mWRShujalpur, Madhya Pradesh
16KPPKalapipal (2)X  21:31+3821:33+392m--1194.847487mWRState Highway 41, Madhya Pradesh
17SEHSehore (2)  22:10+2322:12+222m21223.836500mWRMP 466001, Madhya Pradesh
18BIHBairagarh (2)X  22:59+323:01+42m21252.344522mWRBhopal, Madhya Pradesh
19BPLBhopal Junction (6)XO  23:15+2223:25+2910m31262.538497mWCRBhopal, Madhya Pradesh
20HBJBhopal HabibGanj (5)OO  23:35+3723:37+402m41268.864496mWCRHabibGanj, Madhya Pradesh
21MDDPMandi Dip (1)XO  23:52+4323:54+462m11284.914449mWCRMandideep, Madhya Pradesh
22ODGObaidulla GanjXO  00:53+900:55+142m12298.458450mWCRObaidullaganj Raisen Dist., Madhya Pradesh
23HBDHoshangabad (2)X  01:34+2201:36+222m--2336.228308mWCRHoshangabad, Madhya Pradesh
24ETItarsi Junction (7)02:15+1502:25+2510m32354.259329mWCRItarsi 461111, Madhya Pradesh
25BGTABagratawa (2)X  02:52+5002:54+502m--2380.777338mWCRBagra Tawa, Madhya Pradesh
26SGPSohagpur (2)  03:12+5003:14+522m--2403.876340mWCRSohagpur, Madhya Pradesh
27PPIPipariya (3)X  03:28+5303:30+542m12421.589338mWCRPiparia, Madhya Pradesh
28SCKRSalichauka Road (2)X  03:54+1:0103:56+1:012m--2456.976355mWCRGadarwara, Madhya Pradesh
29GARGadarwara (2)X  04:07+1:0204:09+1:022m12470.980352mWCRNarsinghpur, Madhya Pradesh
30KYKareli (2)  04:30+1:0204:32+1:032m12498.866361mWCRKareli, Madhya Pradesh
31NUNarsinghpur (2)  04:47+1:0504:49+1:062m12515.274365mWCRNarsimhapur, Madhya Pradesh
32SRIDShridham (3)  05:14+1:0705:16+1:062m22546.266373mWCRShridham, Madhya Pradesh
33MMLMadan Mahal (3)X  06:01+5606:03+582m22595.918428mWCRJabalpur, Madhya Pradesh
34JBPJabalpur Junction (4)X  06:15+5306:25+5910m32599.437416mWCRJabalpur, Madhya Pradesh
35ADTLAdhartal (2)X  06:38+1:0206:40+1:012m--2607.441393mWCRJabalpur, Madhya Pradesh
36DOEDeori (2)  06:53+5706:55+562m--2616.249392mWCRJabalpur, Madhya Pradesh
37GSPRGosalpur (2)XO  07:08+5307:10+532m--2626.748396mWCRJabalpur, Madhya Pradesh
38SHRSihora Road (2)X  07:24+5107:26+522m--2637.875388mWCRJabalpur, Madhya Pradesh
39DDCEDundi (2)X  07:38+5107:40+512m--2652.771415mWCRDundi, Madhya Pradesh
40SBDSleemanabad Road (2)  07:48+5207:50+512m--2662.252434mWCRSleemanabad, Madhya Pradesh
41SNRRSansarpur (2)X  07:58+3408:00+342m--2669.258436mWCRNational Highway 7, Madhya Pradesh
42NWRNiwar (2)X  08:08+4908:10+492m--2676.916412mWCRPipraundh, Madhya Pradesh
43KTEKatni Junction (6)X09:00+2009:20+2320m--2690.122387mWCRKatni, Madhya Pradesh
44JLWJhalwara  09:49+3709:51+382m--2700.770406mSECRNational Highway 78, Madhya Pradesh
45RPDRupaundX  10:01+3910:03+402m--2712.474417mSECRJhalwara, Madhya Pradesh
46CHDChandia Road (1)  10:17+4410:19+452m12729.754406mSECRNational Highway 78, Madhya Pradesh
47UMRUmaria (3)  10:40+4210:45+425m--2748.795469mSECRUmaria, Madhya Pradesh
48KKIKarkeli  10:53+4710:55+462m--2761.360471mSECRUmaria, Madhya Pradesh
49NRZBNowrozabadX  11:05+4711:07+472m--2771.362458mSECRNational Highway 78, Madhya Pradesh
50BRSBirsinghpur  11:14+4711:16+482m--2778.651461mSECRPali, Madhya Pradesh
51SDLShahdolX  12:00+3712:10+3910m12815.973466mSECR, Madhya Pradesh
52BUHBurhar  12:26+5512:28+562m--2835.465494mSECRBurhar, Madhya Pradesh
53AALAmlaiX  12:36+5712:38+582m--2844.235495mSECRAnuppur, Madhya Pradesh
54APRAnuppur Junction (3)X  13:00+4413:05+505m12856.877487mSECRAnuppur, Madhya Pradesh
55CLFChhulha  13:09+1:0213:11+1:102m--2862.075488mSECRMauhari, Madhya Pradesh
56JTIJaithari  13:18+1:1313:20+1:162m--2870.780522mSECRAnuppur, Madhya Pradesh
57NIQNigaura  13:28+1:1913:30+1:212m--2881.465547mSECRAnuppur, Madhya Pradesh
58VKRVenkatnagarX  13:37+1:2313:39+1:242m--2889.079549mSECRPendra Rd, Madhya Pradesh
59HRBHarri  13:47+1:2513:49+1:262m--2899.624595mSECRVenkatnagar, Madhya Pradesh
60PNDPendra RoadO  14:10+1:1414:15+1:215m--2908.062620mSECRBilaspur district, Chhattisgarh
61KOIKhodriO  14:26+1:3514:28+1:382m--2919.441558mSECRBilaspur, Chhattisgarh
62BHTKBhanwar Tonk  14:45+1:3714:47+1:382m--2931.044455mSECRKhodri, Chhattisgarh
63KGSKhongsara  15:04+1:3515:06+1:372m--2943.485378mSECRBhanwar, Chhattisgarh
64TGQTenganmadaX  15:12+1:4115:16+1:404m--2951.974367mSECRBelgahna, Chhattisgarh
65BIGBelgahnaX  15:24+1:4115:26+1:422m--2961.765327mSECRBilaspur, Chhattisgarh
66SLKRSalkaroad  15:33+1:4215:35+1:422m--2969.361333mSECRGhutku, Chhattisgarh
67KGBKargi RoadX  15:43+1:4015:45+1:392m--2977.559327mSECRBilaspur, Chhattisgarh
68KLTRKalmitar  15:53+1:3515:55+1:352m--2985.319300mSECRUsalapur, Chhattisgarh
69GTKGhutku  16:20+1:1716:22+1:172m--2993.320288mSECRBilaspur, Chhattisgarh
70USLUslapur (3)  16:45+1:0216:50+1:005m--21001.015272mSECRBilaspur, Chhattisgarh
71BSP•Bilaspur Junction (8)•  17:25+36-821009.5-271mSECRBilaspur, Chhattisgarh
Scroll to Top
Scroll to Bottom